Sky Vita — V2PU8 — position and weather

sailwx.info

Track history (hours):
 
Tides and Currents Weather Stations Pressure Air Temp Water Temp Dewpoint Dewpoint Depression Visibility Wind Speed Wind Dir Waves Ship Positions

Sky Vita

Last reported at 2018-Jun-03 01:29 UTC. Time now 2018-Jun-19 10:53 UTC.
Position N 55°40' E 015°33'.
Warning: this ship's position is 16 days out of date.

Length 88 m; draft 5.5 m.

Type: Cargo ship. MMSI: 304768000.

Date/timePositionNaut miles runAvg speedWind from/ knotsBaromVisibWave heightAir tempDewpointWater temp
2018-Jun-03 01:29N 55°40' E 015°33'5 9.1
2018-Jun-03 00:59N 55°37' E 015°25'5 9.1
2018-Jun-03 00:29N 55°35' E 015°18'4 9.1
2018-Jun-03 00:00N 55°33' E 015°12'4 9.1
2018-Jun-02 23:30N 55°31' E 015°05'5 9.0
2018-Jun-02 23:00N 55°29' E 014°58'5 8.9
2018-Jun-02 22:30N 55°26' E 014°51'4 8.9
2018-Jun-02 22:00N 55°24' E 014°44'4 8.9
2018-Jun-02 21:30N 55°22' E 014°38'5 9.1
2018-Jun-02 21:00N 55°18' E 014°33'4 8.9
2018-Jun-02 20:30N 55°15' E 014°28'4 8.8
2018-Jun-02 20:00N 55°11' E 014°23'4 8.5
2018-Jun-02 19:30N 55°11' E 014°16'5 9.0
2018-Jun-02 19:00N 55°10' E 014°08'5 9.2
2018-Jun-02 18:29N 55°11' E 013°59'4 9.0
2018-Jun-02 18:00N 55°11' E 013°52'4 8.7
2018-Jun-02 17:30N 55°12' E 013°44'5 8.9
2018-Jun-02 16:59N 55°12' E 013°36'4 8.9
2018-Jun-02 16:30N 55°12' E 013°29'4 8.9
2018-Jun-02 16:00N 55°13' E 013°21'4 9.0
2018-Jun-02 15:30N 55°14' E 013°13'4 9.0
2018-Jun-02 15:00N 55°14' E 013°05'4 8.9
2018-Jun-02 14:30N 55°14' E 012°58'4 8.7
2018-Jun-02 14:00N 55°16' E 012°50'4 8.8
2018-Jun-02 13:30N 55°17' E 012°43'4 7.4
2018-Jun-02 13:00N 55°20' E 012°39'5 8.9
2018-Jun-02 12:28N 55°25' E 012°40'4 9.0
2018-Jun-02 11:59N 55°29' E 012°41'4 9.1
2018-Jun-02 11:30N 55°33' E 012°42'5 9.6
2018-Jun-02 11:00N 55°38' E 012°42'5 9.4
2018-Jun-02 10:30N 55°43' E 012°41'4 8.9
2018-Jun-02 10:00N 55°47' E 012°41'4 8.8
2018-Jun-02 09:30N 55°52' E 012°39'4 8.8
2018-Jun-02 09:00N 55°56' E 012°39'4 8.4
2018-Jun-02 08:30N 56°00' E 012°40'5 8.5
2018-Jun-02 07:58N 56°04' E 012°37'16 9.0
2018-Jun-02 06:13N 56°14' E 012°14'2 9.1
2018-Jun-02 05:59N 56°15' E 012°11'59 8.6
2018-Jun-01 23:07N 57°10' E 011°36'1 8.4
2018-Jun-01 22:59N 57°11' E 011°35'4 8.3
2018-Jun-01 22:30N 57°15' E 011°33'4 8.4
2018-Jun-01 22:00N 57°19' E 011°30'4 8.6
2018-Jun-01 21:29N 57°23' E 011°27'4 8.9
2018-Jun-01 21:00N 57°27' E 011°25'4 8.7
2018-Jun-01 20:30N 57°32' E 011°24'4 8.9
2018-Jun-01 20:00N 57°36' E 011°24'5 9.1
2018-Jun-01 19:30N 57°41' E 011°25'5 9.6
2018-Jun-01 19:00N 57°45' E 011°25'5 9.9
2018-Jun-01 18:30N 57°50' E 011°27'5 9.6
2018-Jun-01 18:00N 57°54' E 011°33'5 9.0
2018-Jun-01 17:30N 57°56' E 011°41'5 9.3
2018-Jun-01 17:00N 57°60' E 011°45'4 8.0
2018-Jun-01 16:30N 58°04' E 011°47'1 2.7
2018-Jun-01 16:00N 58°05' E 011°49'0 0.0
2018-Jun-01 13:25N 58°05' E 011°49'0 0.0
2018-Jun-01 12:55N 58°05' E 011°49'0 0.0
2018-Jun-01 04:15N 58°05' E 011°49'0 0.0
2018-Jun-01 03:45N 58°05' E 011°49'0 0.0
2018-Jun-01 03:21N 58°05' E 011°49'0 0.0
2018-Jun-01 02:51N 58°05' E 011°49'0 0.0
2018-Jun-01 01:38N 58°05' E 011°49'0 0.0
2018-May-31 21:43N 58°05' E 011°49'8 1.8
2018-May-31 17:13N 57°57' E 011°43'210.2
2018-May-31 17:00N 57°56' E 011°40'5 9.5
2018-May-31 16:30N 57°54' E 011°32'510.1
2018-May-31 16:00N 57°50' E 011°25'510.4
2018-May-31 15:29N 57°50' E 011°15'510.5
2018-May-31 15:00N 57°49' E 011°05'  
2018-May-28 10:33N 54°01' E 008°09'1 8.8
2018-May-28 10:24N 54°01' E 008°11'3 8.2
2018-May-28 09:59N 53°60' E 008°17'4 8.3
2018-May-28 09:30N 53°59' E 008°24'4 7.5
2018-May-28 09:00N 53°59' E 008°30'4 7.2
2018-May-28 08:30N 53°58' E 008°36'4 6.8
2018-May-28 07:52N 53°55' E 008°41'3 8.5
2018-May-28 07:30N 53°52' E 008°44'5 9.9
2018-May-28 06:58N 53°51' E 008°52'612.0
2018-May-28 06:29N 53°52' E 009°02'611.9
2018-May-28 06:00N 53°53' E 009°11'611.9
2018-May-28 05:31N 53°50' E 009°20'612.4
2018-May-28 05:00N 53°45' E 009°25'611.7
2018-May-28 04:31N 53°40' E 009°31'611.5
2018-May-28 04:00N 53°35' E 009°37'510.9
2018-May-28 03:30N 53°34' E 009°45'5 9.6
2018-May-28 03:00N 53°33' E 009°53'3 4.9
2018-May-28 02:28N 53°31' E 009°57'0 0.0
2018-May-28 01:58N 53°31' E 009°57'0 0.0
2018-May-28 01:30N 53°31' E 009°57'0 0.0
2018-May-28 01:00N 53°31' E 009°57'0 0.0
2018-May-28 00:30N 53°31' E 009°57'0 0.0
2018-May-28 00:00N 53°31' E 009°57'0 0.0
2018-May-27 23:30N 53°31' E 009°57'0 0.0
2018-May-27 22:59N 53°31' E 009°57'0 0.0
2018-May-27 22:29N 53°31' E 009°57'0 0.0
2018-May-27 21:59N 53°31' E 009°57'0 0.0
2018-May-27 21:29N 53°31' E 009°57'0 0.0
2018-May-27 20:55N 53°31' E 009°57'0 0.0
2018-May-27 20:28N 53°31' E 009°57'0 0.0
2018-May-27 19:58N 53°31' E 009°57'0 0.0
2018-May-27 19:28N 53°31' E 009°57'0 0.0
2018-May-27 18:58N 53°31' E 009°57'0 0.0
2018-May-27 18:27N 53°31' E 009°57'0 0.0
2018-May-27 18:00N 53°31' E 009°57'0 0.0
2018-May-27 17:29N 53°31' E 009°57'0 0.0
2018-May-27 16:58N 53°31' E 009°57'0 0.0
2018-May-27 16:28N 53°31' E 009°57'0 0.0
2018-May-27 15:58N 53°31' E 009°57'0 0.7
2018-May-27 15:30N 53°31' E 009°56'3 6.8
2018-May-27 15:00N 53°33' E 009°51'4 8.9
2018-May-27 14:30N 53°34' E 009°44'5 9.3
2018-May-27 14:00N 53°35' E 009°36'5 9.6
2018-May-27 13:30N 53°39' E 009°31'510.3
2018-May-27 13:00N 53°44' E 009°27'611.1
2018-May-27 12:30N 53°48' E 009°22'611.8
2018-May-27 12:00N 53°52' E 009°15'4 6.2
2018-May-27 11:23N 53°53' E 009°09'0 0.0
2018-May-27 10:53N 53°53' E 009°09'0 0.0
2018-May-27 10:20N 53°53' E 009°09'0 0.0
2018-May-27 09:59N 53°53' E 009°09'0 0.0
2018-May-27 09:25N 53°53' E 009°09'0 0.0
2018-May-27 08:58N 53°53' E 009°09'0 0.0
2018-May-27 08:28N 53°53' E 009°09'0 0.1
2018-May-27 07:58N 53°53' E 009°09'0 0.2
2018-May-27 07:21N 53°52' E 009°08'0 0.1
2018-May-27 06:51N 53°53' E 009°08'0 0.0
2018-May-27 06:27N 53°53' E 009°08'0 0.0
2018-May-27 06:00N 53°53' E 009°08'0 0.0
2018-May-27 05:29N 53°53' E 009°08'0 0.0
2018-May-27 04:56N 53°53' E 009°08'0 0.0
2018-May-27 04:23N 53°53' E 009°08'0 0.0
2018-May-27 03:59N 53°53' E 009°08'0 0.0
2018-May-27 03:26N 53°53' E 009°08'0 0.0
2018-May-27 02:55N 53°53' E 009°08'0 0.0
2018-May-27 02:25N 53°53' E 009°08'0 0.0
2018-May-27 01:58N 53°53' E 009°08'0 0.0
2018-May-27 01:28N 53°53' E 009°08'0 0.0
2018-May-27 01:00N 53°53' E 009°08'0 0.1
2018-May-27 00:30N 53°53' E 009°09'0 0.1
2018-May-26 23:57N 53°53' E 009°09'0 0.0
2018-May-26 23:30N 53°53' E 009°09'0 0.0
2018-May-26 23:00N 53°53' E 009°09'0 0.0
2018-May-26 22:30N 53°53' E 009°09'0 0.0
2018-May-26 21:59N 53°53' E 009°09'0 0.0
2018-May-26 21:29N 53°53' E 009°09'0 0.0
2018-May-26 20:59N 53°53' E 009°09'0 0.0
2018-May-26 20:26N 53°53' E 009°09'0 0.0
2018-May-26 19:58N 53°53' E 009°09'0 0.1
2018-May-26 19:28N 53°53' E 009°09'0 0.2
2018-May-26 18:55N 53°53' E 009°08'0 0.0
2018-May-26 18:28N 53°53' E 009°08'0 0.0
2018-May-26 17:42N 53°53' E 009°08'0 0.0
2018-May-26 17:30N 53°53' E 009°08'0 0.0
2018-May-26 16:57N 53°53' E 009°08'0 0.0
2018-May-26 16:27N 53°53' E 009°08'0 0.0
2018-May-26 16:00N 53°53' E 009°08'0 0.0
2018-May-26 15:30N 53°53' E 009°08'0 0.0
2018-May-26 14:59N 53°53' E 009°08'0 0.0
2018-May-26 14:29N 53°53' E 009°08'0 0.0
2018-May-26 13:56N 53°53' E 009°08'0 0.1
2018-May-26 13:29N 53°53' E 009°08'0 0.0
2018-May-26 12:55N 53°53' E 009°08'0 0.2
2018-May-26 12:16N 53°53' E 009°09'0 0.1
2018-May-26 11:55N 53°53' E 009°09'0 0.0
2018-May-26 11:28N 53°53' E 009°09'0 0.0
2018-May-26 10:36N 53°53' E 009°09'0 0.2
2018-May-26 10:30N 53°53' E 009°09'0 0.0
2018-May-26 10:00N 53°53' E 009°09'0 0.0
2018-May-26 09:30N 53°53' E 009°09'0 0.0
2018-May-26 09:00N 53°53' E 009°09'0 0.0
2018-May-26 08:26N 53°53' E 009°09'0 0.1
2018-May-26 08:00N 53°53' E 009°09'3 6.9
2018-May-26 07:30N 53°52' E 009°03'612.0
2018-May-26 07:00N 53°50' E 008°53'510.9
2018-May-26 06:30N 53°52' E 008°44'1110.8
2018-May-26 05:30N 53°58' E 008°29'510.1
2018-May-26 05:00N 53°59' E 008°21'710.9
2018-May-26 04:20N 53°59' E 008°09'510.4
2018-May-26 03:50N 53°58' E 008°00'510.0
2018-May-26 03:21N 53°57' E 007°52'3 9.2
2018-May-26 03:00N 53°56' E 007°47'75 8.2
2018-May-25 17:55N 53°37' E 005°45'4 9.8
2018-May-25 17:30N 53°35' E 005°38'510.1
2018-May-25 16:59N 53°34' E 005°30'511.3
2018-May-25 16:30N 53°33' E 005°21'611.3
2018-May-25 16:00N 53°31' E 005°12'611.3
2018-May-25 15:30N 53°29' E 005°03'611.7
2018-May-25 15:00N 53°26' E 004°54'611.8
2018-May-25 14:28N 53°24' E 004°45'511.4
2018-May-25 14:00N 53°19' E 004°40'1312.1
2018-May-25 12:59N 53°08' E 004°30'3511.4
2018-May-25 09:57N 52°38' E 004°02'510.5
2018-May-25 09:30N 52°34' E 003°58'510.2
2018-May-25 09:00N 52°29' E 003°55'510.1
2018-May-25 08:30N 52°24' E 003°54'5 9.9
2018-May-25 08:00N 52°19' E 003°52'5 9.6
2018-May-25 07:30N 52°15' E 003°53'5 9.1
2018-May-25 07:00N 52°10' E 003°54'4 8.9
2018-May-25 06:30N 52°06' E 003°54'4 7.3
2018-May-25 06:00N 52°02' E 003°53'510.4
2018-May-25 05:30N 52°00' E 004°01'612.4
2018-May-25 05:00N 51°57' E 004°10'612.5
2018-May-25 04:30N 51°54' E 004°18'510.4
2018-May-25 04:00N 51°54' E 004°26'0 0.4
2018-May-25 03:28N 51°54' E 004°27'0 0.0
2018-May-25 02:58N 51°54' E 004°27'0 0.0
2018-May-25 02:28N 51°54' E 004°27'0 0.0
2018-May-25 01:58N 51°54' E 004°27'0 0.0
2018-May-25 01:28N 51°54' E 004°27'0 0.0
2018-May-25 01:00N 51°54' E 004°27'0 0.0
2018-May-25 00:30N 51°54' E 004°27'0 0.0
2018-May-25 00:00N 51°54' E 004°27'0 0.0
2018-May-24 23:30N 51°54' E 004°27'0 0.0
2018-May-24 22:59N 51°54' E 004°27'0 0.0
2018-May-24 22:29N 51°54' E 004°27'0 0.0
2018-May-24 21:59N 51°54' E 004°27'0 0.0
2018-May-24 21:29N 51°54' E 004°27'0 0.0
2018-May-24 20:59N 51°54' E 004°27'0 0.0
2018-May-24 20:28N 51°54' E 004°27'0 0.0
2018-May-24 19:58N 51°54' E 004°27'0 0.0
2018-May-24 19:28N 51°54' E 004°27'0 0.0
2018-May-24 18:58N 51°54' E 004°27'0 0.0
2018-May-24 18:28N 51°54' E 004°27'0 0.0
2018-May-24 18:00N 51°54' E 004°27'0 0.0
2018-May-24 17:30N 51°54' E 004°27'0 0.0
2018-May-24 17:00N 51°54' E 004°27'0 0.0
2018-May-24 16:30N 51°54' E 004°27'0 0.0
2018-May-24 15:59N 51°54' E 004°27'0 0.0
2018-May-24 15:29N 51°54' E 004°27'0 0.0
2018-May-24 14:59N 51°54' E 004°27'0 0.0
2018-May-24 14:29N 51°54' E 004°27'0 0.0
2018-May-24 13:59N 51°54' E 004°27'0 0.0
2018-May-24 13:28N 51°54' E 004°27'0 0.0
2018-May-24 08:59N 51°54' E 004°27'0 0.0
2018-May-24 08:29N 51°54' E 004°27'0 0.0
2018-May-24 07:59N 51°54' E 004°27'0 0.0
2018-May-24 07:29N 51°54' E 004°27'0 0.0
2018-May-24 06:59N 51°54' E 004°27'0 0.0
2018-May-24 06:28N 51°54' E 004°27'0 0.0
2018-May-24 05:58N 51°54' E 004°27'0 0.0
2018-May-24 05:28N 51°54' E 004°27'0 0.0
2018-May-24 04:58N 51°54' E 004°27'0 0.0
2018-May-24 04:30N 51°54' E 004°27'0 0.0
2018-May-24 04:00N 51°54' E 004°27'0 0.0
2018-May-24 03:30N 51°54' E 004°27'0 0.0
2018-May-24 03:00N 51°54' E 004°27'0 0.0
2018-May-24 02:30N 51°54' E 004°27'0 0.0
2018-May-24 01:59N 51°54' E 004°27'  
Track history (hours):
 
Tides and Currents Weather Stations Pressure Air Temp Water Temp Dewpoint Dewpoint Depression Visibility Wind Speed Wind Dir Waves Ship Positions

Sky Vita

Last reported at 2018-Jun-03 01:29 UTC. Time now 2018-Jun-19 10:53 UTC.
Position N 55°40' E 015°33'.
Warning: this ship's position is 16 days out of date.

Length 88 m; draft 5.5 m.

Type: Cargo ship. MMSI: 304768000.

Date/timePositionNaut miles runAvg speedWind from/ knotsBaromVisibWave heightAir tempDewpointWater temp
2018-Jun-03 01:29N 55°40' E 015°33'5 9.1
2018-Jun-03 00:59N 55°37' E 015°25'5 9.1
2018-Jun-03 00:29N 55°35' E 015°18'4 9.1
2018-Jun-03 00:00N 55°33' E 015°12'4 9.1
2018-Jun-02 23:30N 55°31' E 015°05'5 9.0
2018-Jun-02 23:00N 55°29' E 014°58'5 8.9
2018-Jun-02 22:30N 55°26' E 014°51'4 8.9
2018-Jun-02 22:00N 55°24' E 014°44'4 8.9
2018-Jun-02 21:30N 55°22' E 014°38'5 9.1
2018-Jun-02 21:00N 55°18' E 014°33'4 8.9
2018-Jun-02 20:30N 55°15' E 014°28'4 8.8
2018-Jun-02 20:00N 55°11' E 014°23'4 8.5
2018-Jun-02 19:30N 55°11' E 014°16'5 9.0
2018-Jun-02 19:00N 55°10' E 014°08'5 9.2
2018-Jun-02 18:29N 55°11' E 013°59'4 9.0
2018-Jun-02 18:00N 55°11' E 013°52'4 8.7
2018-Jun-02 17:30N 55°12' E 013°44'5 8.9
2018-Jun-02 16:59N 55°12' E 013°36'4 8.9
2018-Jun-02 16:30N 55°12' E 013°29'4 8.9
2018-Jun-02 16:00N 55°13' E 013°21'4 9.0
2018-Jun-02 15:30N 55°14' E 013°13'4 9.0
2018-Jun-02 15:00N 55°14' E 013°05'4 8.9
2018-Jun-02 14:30N 55°14' E 012°58'4 8.7
2018-Jun-02 14:00N 55°16' E 012°50'4 8.8
2018-Jun-02 13:30N 55°17' E 012°43'4 7.4
2018-Jun-02 13:00N 55°20' E 012°39'5 8.9
2018-Jun-02 12:28N 55°25' E 012°40'4 9.0
2018-Jun-02 11:59N 55°29' E 012°41'4 9.1
2018-Jun-02 11:30N 55°33' E 012°42'5 9.6
2018-Jun-02 11:00N 55°38' E 012°42'5 9.4
2018-Jun-02 10:30N 55°43' E 012°41'4 8.9
2018-Jun-02 10:00N 55°47' E 012°41'4 8.8
2018-Jun-02 09:30N 55°52' E 012°39'4 8.8
2018-Jun-02 09:00N 55°56' E 012°39'4 8.4
2018-Jun-02 08:30N 56°00' E 012°40'5 8.5
2018-Jun-02 07:58N 56°04' E 012°37'16 9.0
2018-Jun-02 06:13N 56°14' E 012°14'2 9.1
2018-Jun-02 05:59N 56°15' E 012°11'59 8.6
2018-Jun-01 23:07N 57°10' E 011°36'1 8.4
2018-Jun-01 22:59N 57°11' E 011°35'4 8.3
2018-Jun-01 22:30N 57°15' E 011°33'4 8.4
2018-Jun-01 22:00N 57°19' E 011°30'4 8.6
2018-Jun-01 21:29N 57°23' E 011°27'4 8.9
2018-Jun-01 21:00N 57°27' E 011°25'4 8.7
2018-Jun-01 20:30N 57°32' E 011°24'4 8.9
2018-Jun-01 20:00N 57°36' E 011°24'5 9.1
2018-Jun-01 19:30N 57°41' E 011°25'5 9.6
2018-Jun-01 19:00N 57°45' E 011°25'5 9.9
2018-Jun-01 18:30N 57°50' E 011°27'5 9.6
2018-Jun-01 18:00N 57°54' E 011°33'5 9.0
2018-Jun-01 17:30N 57°56' E 011°41'5 9.3
2018-Jun-01 17:00N 57°60' E 011°45'4 8.0
2018-Jun-01 16:30N 58°04' E 011°47'1 2.7
2018-Jun-01 16:00N 58°05' E 011°49'0 0.0
2018-Jun-01 13:25N 58°05' E 011°49'0 0.0
2018-Jun-01 12:55N 58°05' E 011°49'0 0.0
2018-Jun-01 04:15N 58°05' E 011°49'0 0.0
2018-Jun-01 03:45N 58°05' E 011°49'0 0.0
2018-Jun-01 03:21N 58°05' E 011°49'0 0.0
2018-Jun-01 02:51N 58°05' E 011°49'0 0.0
2018-Jun-01 01:38N 58°05' E 011°49'0 0.0
2018-May-31 21:43N 58°05' E 011°49'8 1.8
2018-May-31 17:13N 57°57' E 011°43'210.2
2018-May-31 17:00N 57°56' E 011°40'5 9.5
2018-May-31 16:30N 57°54' E 011°32'510.1
2018-May-31 16:00N 57°50' E 011°25'510.4
2018-May-31 15:29N 57°50' E 011°15'510.5
2018-May-31 15:00N 57°49' E 011°05'  
2018-May-28 10:33N 54°01' E 008°09'1 8.8
2018-May-28 10:24N 54°01' E 008°11'3 8.2
2018-May-28 09:59N 53°60' E 008°17'4 8.3
2018-May-28 09:30N 53°59' E 008°24'4 7.5
2018-May-28 09:00N 53°59' E 008°30'4 7.2
2018-May-28 08:30N 53°58' E 008°36'4 6.8
2018-May-28 07:52N 53°55' E 008°41'3 8.5
2018-May-28 07:30N 53°52' E 008°44'5 9.9
2018-May-28 06:58N 53°51' E 008°52'612.0
2018-May-28 06:29N 53°52' E 009°02'611.9
2018-May-28 06:00N 53°53' E 009°11'611.9
2018-May-28 05:31N 53°50' E 009°20'612.4
2018-May-28 05:00N 53°45' E 009°25'611.7
2018-May-28 04:31N 53°40' E 009°31'611.5
2018-May-28 04:00N 53°35' E 009°37'510.9
2018-May-28 03:30N 53°34' E 009°45'5 9.6
2018-May-28 03:00N 53°33' E 009°53'3 4.9
2018-May-28 02:28N 53°31' E 009°57'0 0.0
2018-May-28 01:58N 53°31' E 009°57'0 0.0
2018-May-28 01:30N 53°31' E 009°57'0 0.0
2018-May-28 01:00N 53°31' E 009°57'0 0.0
2018-May-28 00:30N 53°31' E 009°57'0 0.0
2018-May-28 00:00N 53°31' E 009°57'0 0.0
2018-May-27 23:30N 53°31' E 009°57'0 0.0
2018-May-27 22:59N 53°31' E 009°57'0 0.0
2018-May-27 22:29N 53°31' E 009°57'0 0.0
2018-May-27 21:59N 53°31' E 009°57'0 0.0
2018-May-27 21:29N 53°31' E 009°57'0 0.0
2018-May-27 20:55N 53°31' E 009°57'0 0.0
2018-May-27 20:28N 53°31' E 009°57'0 0.0
2018-May-27 19:58N 53°31' E 009°57'0 0.0
2018-May-27 19:28N 53°31' E 009°57'0 0.0
2018-May-27 18:58N 53°31' E 009°57'0 0.0
2018-May-27 18:27N 53°31' E 009°57'0 0.0
2018-May-27 18:00N 53°31' E 009°57'0 0.0
2018-May-27 17:29N 53°31' E 009°57'0 0.0
2018-May-27 16:58N 53°31' E 009°57'0 0.0
2018-May-27 16:28N 53°31' E 009°57'0 0.0
2018-May-27 15:58N 53°31' E 009°57'0 0.7
2018-May-27 15:30N 53°31' E 009°56'3 6.8
2018-May-27 15:00N 53°33' E 009°51'4 8.9
2018-May-27 14:30N 53°34' E 009°44'5 9.3
2018-May-27 14:00N 53°35' E 009°36'5 9.6
2018-May-27 13:30N 53°39' E 009°31'510.3
2018-May-27 13:00N 53°44' E 009°27'611.1
2018-May-27 12:30N 53°48' E 009°22'611.8
2018-May-27 12:00N 53°52' E 009°15'4 6.2
2018-May-27 11:23N 53°53' E 009°09'0 0.0
2018-May-27 10:53N 53°53' E 009°09'0 0.0
2018-May-27 10:20N 53°53' E 009°09'0 0.0
2018-May-27 09:59N 53°53' E 009°09'0 0.0
2018-May-27 09:25N 53°53' E 009°09'0 0.0
2018-May-27 08:58N 53°53' E 009°09'0 0.0
2018-May-27 08:28N 53°53' E 009°09'0 0.1
2018-May-27 07:58N 53°53' E 009°09'0 0.2
2018-May-27 07:21N 53°52' E 009°08'0 0.1
2018-May-27 06:51N 53°53' E 009°08'0 0.0
2018-May-27 06:27N 53°53' E 009°08'0 0.0
2018-May-27 06:00N 53°53' E 009°08'0 0.0
2018-May-27 05:29N 53°53' E 009°08'0 0.0
2018-May-27 04:56N 53°53' E 009°08'0 0.0
2018-May-27 04:23N 53°53' E 009°08'0 0.0
2018-May-27 03:59N 53°53' E 009°08'0 0.0
2018-May-27 03:26N 53°53' E 009°08'0 0.0
2018-May-27 02:55N 53°53' E 009°08'0 0.0
2018-May-27 02:25N 53°53' E 009°08'0 0.0
2018-May-27 01:58N 53°53' E 009°08'0 0.0
2018-May-27 01:28N 53°53' E 009°08'0 0.0
2018-May-27 01:00N 53°53' E 009°08'0 0.1
2018-May-27 00:30N 53°53' E 009°09'0 0.1
2018-May-26 23:57N 53°53' E 009°09'0 0.0
2018-May-26 23:30N 53°53' E 009°09'0 0.0
2018-May-26 23:00N 53°53' E 009°09'0 0.0
2018-May-26 22:30N 53°53' E 009°09'0 0.0
2018-May-26 21:59N 53°53' E 009°09'0 0.0
2018-May-26 21:29N 53°53' E 009°09'0 0.0
2018-May-26 20:59N 53°53' E 009°09'0 0.0
2018-May-26 20:26N 53°53' E 009°09'0 0.0
2018-May-26 19:58N 53°53' E 009°09'0 0.1
2018-May-26 19:28N 53°53' E 009°09'0 0.2
2018-May-26 18:55N 53°53' E 009°08'0 0.0
2018-May-26 18:28N 53°53' E 009°08'0 0.0
2018-May-26 17:42N 53°53' E 009°08'0 0.0
2018-May-26 17:30N 53°53' E 009°08'0 0.0
2018-May-26 16:57N 53°53' E 009°08'0 0.0
2018-May-26 16:27N 53°53' E 009°08'0 0.0
2018-May-26 16:00N 53°53' E 009°08'0 0.0
2018-May-26 15:30N 53°53' E 009°08'0 0.0
2018-May-26 14:59N 53°53' E 009°08'0 0.0
2018-May-26 14:29N 53°53' E 009°08'0 0.0
2018-May-26 13:56N 53°53' E 009°08'0 0.1
2018-May-26 13:29N 53°53' E 009°08'0 0.0
2018-May-26 12:55N 53°53' E 009°08'0 0.2
2018-May-26 12:16N 53°53' E 009°09'0 0.1
2018-May-26 11:55N 53°53' E 009°09'0 0.0
2018-May-26 11:28N 53°53' E 009°09'0 0.0
2018-May-26 10:36N 53°53' E 009°09'0 0.2
2018-May-26 10:30N 53°53' E 009°09'0 0.0
2018-May-26 10:00N 53°53' E 009°09'0 0.0
2018-May-26 09:30N 53°53' E 009°09'0 0.0
2018-May-26 09:00N 53°53' E 009°09'0 0.0
2018-May-26 08:26N 53°53' E 009°09'0 0.1
2018-May-26 08:00N 53°53' E 009°09'3 6.9
2018-May-26 07:30N 53°52' E 009°03'612.0
2018-May-26 07:00N 53°50' E 008°53'510.9
2018-May-26 06:30N 53°52' E 008°44'1110.8
2018-May-26 05:30N 53°58' E 008°29'510.1
2018-May-26 05:00N 53°59' E 008°21'710.9
2018-May-26 04:20N 53°59' E 008°09'510.4
2018-May-26 03:50N 53°58' E 008°00'510.0
2018-May-26 03:21N 53°57' E 007°52'3 9.2
2018-May-26 03:00N 53°56' E 007°47'75 8.2
2018-May-25 17:55N 53°37' E 005°45'4 9.8
2018-May-25 17:30N 53°35' E 005°38'510.1
2018-May-25 16:59N 53°34' E 005°30'511.3
2018-May-25 16:30N 53°33' E 005°21'611.3
2018-May-25 16:00N 53°31' E 005°12'611.3
2018-May-25 15:30N 53°29' E 005°03'611.7
2018-May-25 15:00N 53°26' E 004°54'611.8
2018-May-25 14:28N 53°24' E 004°45'511.4
2018-May-25 14:00N 53°19' E 004°40'1312.1
2018-May-25 12:59N 53°08' E 004°30'3511.4
2018-May-25 09:57N 52°38' E 004°02'510.5
2018-May-25 09:30N 52°34' E 003°58'510.2
2018-May-25 09:00N 52°29' E 003°55'510.1
2018-May-25 08:30N 52°24' E 003°54'5 9.9
2018-May-25 08:00N 52°19' E 003°52'5 9.6
2018-May-25 07:30N 52°15' E 003°53'5 9.1
2018-May-25 07:00N 52°10' E 003°54'4 8.9
2018-May-25 06:30N 52°06' E 003°54'4 7.3
2018-May-25 06:00N 52°02' E 003°53'510.4
2018-May-25 05:30N 52°00' E 004°01'612.4
2018-May-25 05:00N 51°57' E 004°10'612.5
2018-May-25 04:30N 51°54' E 004°18'510.4
2018-May-25 04:00N 51°54' E 004°26'0 0.4
2018-May-25 03:28N 51°54' E 004°27'0 0.0
2018-May-25 02:58N 51°54' E 004°27'0 0.0
2018-May-25 02:28N 51°54' E 004°27'0 0.0
2018-May-25 01:58N 51°54' E 004°27'0 0.0
2018-May-25 01:28N 51°54' E 004°27'0 0.0
2018-May-25 01:00N 51°54' E 004°27'0 0.0
2018-May-25 00:30N 51°54' E 004°27'0 0.0
2018-May-25 00:00N 51°54' E 004°27'0 0.0
2018-May-24 23:30N 51°54' E 004°27'0 0.0
2018-May-24 22:59N 51°54' E 004°27'0 0.0
2018-May-24 22:29N 51°54' E 004°27'0 0.0
2018-May-24 21:59N 51°54' E 004°27'0 0.0
2018-May-24 21:29N 51°54' E 004°27'0 0.0
2018-May-24 20:59N 51°54' E 004°27'0 0.0
2018-May-24 20:28N 51°54' E 004°27'0 0.0
2018-May-24 19:58N 51°54' E 004°27'0 0.0
2018-May-24 19:28N 51°54' E 004°27'0 0.0
2018-May-24 18:58N 51°54' E 004°27'0 0.0
2018-May-24 18:28N 51°54' E 004°27'0 0.0
2018-May-24 18:00N 51°54' E 004°27'0 0.0
2018-May-24 17:30N 51°54' E 004°27'0 0.0
2018-May-24 17:00N 51°54' E 004°27'0 0.0
2018-May-24 16:30N 51°54' E 004°27'0 0.0
2018-May-24 15:59N 51°54' E 004°27'0 0.0
2018-May-24 15:29N 51°54' E 004°27'0 0.0
2018-May-24 14:59N 51°54' E 004°27'0 0.0
2018-May-24 14:29N 51°54' E 004°27'0 0.0
2018-May-24 13:59N 51°54' E 004°27'0 0.0
2018-May-24 13:28N 51°54' E 004°27'0 0.0
2018-May-24 08:59N 51°54' E 004°27'0 0.0
2018-May-24 08:29N 51°54' E 004°27'0 0.0
2018-May-24 07:59N 51°54' E 004°27'0 0.0
2018-May-24 07:29N 51°54' E 004°27'0 0.0
2018-May-24 06:59N 51°54' E 004°27'0 0.0
2018-May-24 06:28N 51°54' E 004°27'0 0.0
2018-May-24 05:58N 51°54' E 004°27'0 0.0
2018-May-24 05:28N 51°54' E 004°27'0 0.0
2018-May-24 04:58N 51°54' E 004°27'0 0.0
2018-May-24 04:30N 51°54' E 004°27'0 0.0
2018-May-24 04:00N 51°54' E 004°27'0 0.0
2018-May-24 03:30N 51°54' E 004°27'0 0.0
2018-May-24 03:00N 51°54' E 004°27'0 0.0
2018-May-24 02:30N 51°54' E 004°27'0 0.0
2018-May-24 01:59N 51°54' E 004°27'  

Dump ship's entire track history